Rayle, Georgia
Current Conditions -  °F | °C
As of 7:35 AM on Saturday 20 Dec 2014 (Local Time) from KIIY Reporting Station
Drizzle Drizzle  
Wind Chill: 46°   Ceiling: 100
Heat Index: 46°   Visibility: 3mi
Dew Point: 46°   Wind: 0mph
Humidity: 100%   Direction: NA
Pressure: 30.18"   Gusts: NA
Location:  33.79°N, 82.9°W
Report Text: KIIY 201235Z AUTO 00000KT 3SM -DZ OVC001 08/08 A3018 RMK AO2
Loading
Personal Weather Stations






























Interactive Weather Map New forecast layout! Learn more

10-Day Weather Forecast

Advertisements
Track Severe Weather on mobile